createdAt,value
2022-09-28T00:02:13.336Z,1.70
2022-09-28T00:04:40.254Z,1.20
2022-09-28T00:07:07.132Z,1.48
2022-09-28T00:09:33.948Z,1.50
2022-09-28T00:12:01.159Z,1.45
2022-09-28T00:14:28.330Z,1.23
2022-09-28T00:16:55.318Z,1.63
2022-09-28T00:19:22.292Z,1.60
2022-09-28T00:21:49.237Z,1.48
2022-09-28T00:24:16.127Z,1.50
2022-09-28T00:26:50.504Z,1.40
2022-09-28T00:29:32.966Z,1.30
2022-09-28T00:32:02.612Z,1.40
2022-09-28T00:34:33.809Z,1.58
2022-09-28T00:37:01.123Z,1.40
2022-09-28T00:39:28.138Z,1.30
2022-09-28T00:41:55.112Z,1.40
2022-09-28T00:44:39.159Z,1.30
2022-09-28T00:47:26.770Z,1.30
2022-09-28T00:50:05.465Z,1.40
2022-09-28T00:52:36.497Z,1.38
2022-09-28T00:55:05.553Z,1.33
2022-09-28T00:57:32.436Z,1.27
2022-09-28T00:59:59.675Z,1.40
2022-09-28T01:02:26.637Z,1.45
2022-09-28T01:04:53.611Z,1.23
2022-09-28T01:07:20.513Z,1.30
2022-09-28T01:09:47.672Z,1.20
2022-09-28T01:12:14.590Z,1.50
2022-09-28T01:14:41.508Z,1.13
2022-09-28T01:17:15.687Z,1.30
2022-09-28T01:20:18.131Z,1.25
2022-09-28T01:22:55.143Z,1.30
2022-09-28T01:25:28.238Z,1.40
2022-09-28T01:28:15.076Z,1.42
2022-09-28T01:31:00.347Z,1.20
2022-09-28T01:33:30.104Z,1.20
2022-09-28T01:36:04.484Z,1.10
2022-09-28T01:38:34.223Z,1.20
2022-09-28T01:41:01.094Z,1.30
2022-09-28T01:43:28.651Z,1.20
2022-09-28T01:46:18.795Z,1.23
2022-09-28T01:48:59.924Z,1.13
2022-09-28T01:51:52.182Z,1.13
2022-09-28T01:54:26.954Z,1.15
2022-09-28T01:59:33.813Z,1.00
2022-09-28T02:02:07.221Z,1.00
2022-09-28T02:04:37.215Z,0.98
2022-09-28T02:07:09.740Z,1.02
2022-09-28T02:09:46.153Z,0.90
2022-09-28T02:12:16.434Z,1.20
2022-09-28T02:14:44.736Z,1.10
2022-09-28T02:17:11.601Z,1.00
2022-09-28T02:19:38.468Z,1.13
2022-09-28T02:22:05.186Z,1.02
2022-09-28T02:24:46.474Z,0.93
2022-09-28T02:27:41.506Z,0.90
2022-09-28T02:30:09.025Z,0.88
2022-09-28T02:32:40.273Z,0.70
2022-09-28T02:35:10.989Z,0.80
2022-09-28T02:37:38.794Z,1.00
2022-09-28T02:40:24.554Z,0.98
2022-09-28T02:43:23.778Z,0.90
2022-09-28T02:46:02.233Z,0.80
2022-09-28T02:49:17.503Z,0.80
2022-09-28T02:52:04.708Z,0.90
2022-09-28T02:54:49.929Z,0.70
2022-09-28T02:57:19.749Z,0.70
2022-09-28T03:00:15.033Z,0.70
2022-09-28T03:03:00.616Z,0.90
2022-09-28T03:05:53.984Z,0.80
2022-09-28T03:08:31.185Z,0.80
2022-09-28T03:11:04.309Z,0.80
2022-09-28T03:13:32.198Z,0.80
2022-09-28T03:16:12.802Z,0.88
2022-09-28T03:18:41.343Z,0.80
2022-09-28T03:21:08.224Z,0.70
2022-09-28T03:23:35.276Z,0.80
2022-09-28T03:26:02.789Z,0.85
2022-09-28T03:28:30.380Z,0.80
2022-09-28T03:30:58.063Z,0.88
2022-09-28T03:33:25.146Z,0.70
2022-09-28T03:35:53.399Z,0.70
2022-09-28T03:38:20.589Z,0.80
2022-09-28T03:40:58.110Z,0.60
2022-09-28T03:43:25.406Z,0.80
2022-09-28T03:45:55.503Z,0.60
2022-09-28T03:48:31.361Z,0.70
2022-09-28T03:51:00.808Z,0.60
2022-09-28T03:53:29.588Z,0.70
2022-09-28T03:55:56.746Z,0.60
2022-09-28T03:58:23.702Z,0.63
2022-09-28T04:00:51.321Z,0.70
2022-09-28T04:03:18.419Z,0.60
2022-09-28T04:05:50.019Z,0.77
2022-09-28T04:08:17.248Z,0.77
2022-09-28T04:10:45.662Z,0.90
2022-09-28T04:13:12.701Z,0.70
2022-09-28T04:15:40.832Z,1.13
2022-09-28T04:18:11.528Z,0.90
2022-09-28T04:21:10.837Z,0.90
2022-09-28T04:23:44.706Z,1.10
2022-09-28T04:26:18.822Z,0.80
2022-09-28T04:29:06.765Z,0.80
2022-09-28T04:31:42.086Z,0.80
2022-09-28T04:34:10.032Z,0.80
2022-09-28T04:36:37.190Z,0.90
2022-09-28T04:39:04.272Z,0.60
2022-09-28T04:41:32.415Z,0.98
2022-09-28T04:43:59.403Z,0.77
2022-09-28T04:46:26.450Z,0.70
2022-09-28T04:49:22.601Z,0.90
2022-09-28T04:51:53.108Z,0.80
2022-09-28T04:54:20.014Z,0.65
2022-09-28T04:56:46.831Z,0.80
2022-09-28T04:59:13.786Z,0.90
2022-09-28T05:01:42.505Z,0.82
2022-09-28T05:04:28.326Z,0.60
2022-09-28T05:07:10.096Z,0.70
2022-09-28T05:09:38.661Z,0.70
2022-09-28T05:12:05.829Z,0.98
2022-09-28T05:14:32.687Z,0.70
2022-09-28T05:17:00.036Z,0.70
2022-09-28T05:19:27.013Z,0.70
2022-09-28T05:22:00.528Z,0.80
2022-09-28T05:24:27.597Z,0.93
2022-09-28T05:26:54.463Z,0.63
2022-09-28T05:29:21.460Z,0.80
2022-09-28T05:32:06.828Z,0.70
2022-09-28T05:34:52.526Z,0.60
2022-09-28T05:37:24.959Z,0.80
2022-09-28T05:39:51.852Z,0.80
2022-09-28T05:42:18.722Z,0.70
2022-09-28T05:44:45.618Z,0.70
2022-09-28T05:47:12.792Z,0.70
2022-09-28T05:49:39.745Z,0.70
2022-09-28T05:52:06.573Z,0.70
2022-09-28T05:54:37.387Z,0.60
2022-09-28T05:57:05.301Z,0.60
2022-09-28T05:59:32.115Z,0.60
2022-09-28T06:02:00.236Z,0.70
2022-09-28T06:04:27.296Z,0.60
2022-09-28T06:06:54.221Z,0.80
2022-09-28T06:09:25.927Z,0.60
2022-09-28T06:11:59.548Z,0.65
2022-09-28T06:14:55.312Z,0.60
2022-09-28T06:17:23.664Z,0.70
2022-09-28T06:20:11.662Z,0.80
2022-09-28T06:23:09.192Z,0.45
2022-09-28T06:25:36.187Z,0.63
2022-09-28T06:28:08.943Z,0.50
2022-09-28T06:30:38.148Z,0.60
2022-09-28T06:33:08.454Z,0.70
2022-09-28T06:35:36.641Z,0.50
2022-09-28T06:38:03.767Z,0.50
2022-09-28T06:40:31.703Z,0.70
2022-09-28T06:43:03.266Z,0.50
2022-09-28T06:45:52.728Z,0.50
2022-09-28T06:48:38.103Z,0.70
2022-09-28T06:51:07.168Z,0.80
2022-09-28T06:53:41.619Z,0.40
2022-09-28T06:56:22.182Z,0.50
2022-09-28T06:58:49.371Z,0.50
2022-09-28T07:01:16.311Z,0.60
2022-09-28T07:03:55.839Z,0.43
2022-09-28T07:06:47.780Z,0.63
2022-09-28T07:09:35.037Z,0.60
2022-09-28T07:12:42.084Z,0.50
2022-09-28T07:15:31.891Z,0.40
2022-09-28T07:18:03.081Z,0.50
2022-09-28T07:20:31.740Z,0.50
2022-09-28T07:23:11.545Z,0.60
2022-09-28T07:26:07.786Z,0.50
2022-09-28T07:29:13.178Z,0.43
2022-09-28T07:31:55.042Z,0.40
2022-09-28T07:34:46.264Z,0.60
2022-09-28T07:37:27.508Z,0.50
2022-09-28T07:40:13.440Z,0.50
2022-09-28T07:42:40.340Z,0.60
2022-09-28T07:45:07.863Z,0.40
2022-09-28T07:47:35.402Z,0.38
2022-09-28T07:50:21.318Z,0.45
2022-09-28T07:53:08.487Z,0.60
2022-09-28T07:55:53.143Z,0.52
2022-09-28T07:58:39.146Z,0.57
2022-09-28T08:01:32.255Z,0.50
2022-09-28T08:04:00.038Z,0.50
2022-09-28T08:06:26.908Z,0.47
2022-09-28T08:08:56.313Z,0.50
2022-09-28T08:11:29.472Z,0.50
2022-09-28T08:14:22.423Z,0.60
2022-09-28T08:17:01.280Z,0.50
2022-09-28T08:20:04.798Z,0.50
2022-09-28T08:22:32.368Z,0.40
2022-09-28T08:25:00.434Z,0.40
2022-09-28T08:27:27.763Z,0.47
2022-09-28T08:29:54.902Z,0.50
2022-09-28T08:32:44.979Z,0.50
2022-09-28T08:35:31.586Z,0.50
2022-09-28T08:38:13.625Z,0.50
2022-09-28T08:41:07.540Z,0.50
2022-09-28T08:43:59.732Z,0.40
2022-09-28T08:46:38.889Z,0.40
2022-09-28T08:49:37.093Z,0.40
2022-09-28T08:52:36.527Z,0.57
2022-09-28T08:55:17.209Z,0.40
2022-09-28T08:58:05.428Z,0.30
2022-09-28T09:00:47.622Z,0.38
2022-09-28T09:03:20.300Z,0.30
2022-09-28T09:06:30.092Z,0.40
2022-09-28T09:09:01.073Z,0.30
2022-09-28T09:11:49.339Z,0.40
2022-09-28T09:14:51.672Z,0.40
2022-09-28T09:17:42.990Z,0.40
2022-09-28T09:20:54.921Z,0.30
2022-09-28T09:23:46.577Z,0.28
2022-09-28T09:26:22.767Z,0.40
2022-09-28T09:29:03.041Z,0.40
2022-09-28T09:31:59.696Z,0.30
2022-09-28T09:34:42.508Z,0.35
2022-09-28T09:37:49.922Z,0.40
2022-09-28T09:40:38.511Z,0.32
2022-09-28T09:43:31.800Z,0.30
2022-09-28T09:46:30.017Z,0.40
2022-09-28T09:49:25.124Z,0.40
2022-09-28T09:52:15.178Z,0.50
2022-09-28T09:55:01.817Z,0.40
2022-09-28T09:57:41.254Z,0.30
2022-09-28T10:00:25.031Z,0.30
2022-09-28T10:03:04.734Z,0.40
2022-09-28T10:05:38.711Z,0.40
2022-09-28T10:08:08.628Z,0.50
2022-09-28T10:10:38.131Z,0.30
2022-09-28T10:13:11.004Z,0.30
2022-09-28T10:15:38.992Z,0.40
2022-09-28T10:18:16.625Z,0.40
2022-09-28T10:21:03.590Z,0.40
2022-09-28T10:24:49.834Z,0.40
2022-09-28T10:27:19.549Z,0.30
2022-09-28T10:29:50.143Z,0.40
2022-09-28T10:32:41.289Z,0.38
2022-09-28T10:35:22.776Z,0.38
2022-09-28T10:38:17.077Z,0.28
2022-09-28T10:40:47.713Z,0.20
2022-09-28T10:43:38.562Z,0.40
2022-09-28T10:46:12.793Z,0.30
2022-09-28T10:49:00.694Z,0.28
2022-09-28T10:51:43.657Z,0.40
2022-09-28T10:54:17.760Z,0.30
2022-09-28T10:56:46.909Z,0.40
2022-09-28T10:59:29.334Z,0.30
2022-09-28T11:02:26.535Z,0.30
2022-09-28T11:05:01.261Z,0.30
2022-09-28T11:07:33.496Z,0.38
2022-09-28T11:10:01.087Z,0.45
2022-09-28T11:12:37.140Z,0.30
2022-09-28T11:15:06.296Z,0.40
2022-09-28T11:17:34.284Z,0.35
2022-09-28T11:20:26.062Z,0.60
2022-09-28T11:22:59.202Z,0.38
2022-09-28T11:25:31.401Z,0.50
2022-09-28T11:28:00.999Z,0.35
2022-09-28T11:30:29.726Z,0.40
2022-09-28T11:33:20.749Z,0.45
2022-09-28T11:36:32.268Z,0.50
2022-09-28T11:39:11.448Z,0.38
2022-09-28T11:42:24.044Z,0.40
2022-09-28T11:44:54.074Z,0.40
2022-09-28T11:47:49.982Z,0.40
2022-09-28T11:50:36.179Z,0.50
2022-09-28T11:53:13.803Z,0.50
2022-09-28T11:56:08.869Z,0.45
2022-09-28T11:58:53.605Z,0.40
2022-09-28T12:01:26.672Z,0.40
2022-09-28T12:04:33.976Z,0.50
2022-09-28T12:07:09.181Z,0.45
2022-09-28T12:09:39.088Z,0.40
2022-09-28T12:12:32.603Z,0.40
2022-09-28T12:15:59.236Z,0.50
2022-09-28T12:18:40.124Z,0.40
2022-09-28T12:21:09.719Z,0.40
2022-09-28T12:23:37.367Z,0.30
2022-09-28T12:26:05.774Z,0.40
2022-09-28T12:28:39.609Z,0.40
2022-09-28T12:31:14.875Z,0.38
2022-09-28T12:33:42.704Z,0.40
2022-09-28T12:36:28.549Z,0.40
2022-09-28T12:39:27.124Z,0.50
2022-09-28T12:42:21.190Z,0.50
2022-09-28T12:45:10.102Z,0.50
2022-09-28T12:47:43.082Z,0.40
2022-09-28T12:53:14.972Z,0.30
2022-09-28T12:56:01.835Z,0.50
2022-09-28T12:59:05.413Z,0.52
2022-09-28T13:01:39.602Z,0.50
2022-09-28T13:04:12.781Z,0.43
2022-09-28T13:06:59.067Z,0.38
2022-09-28T13:09:26.807Z,0.38
2022-09-28T13:12:13.104Z,0.50
2022-09-28T13:15:01.199Z,0.50
2022-09-28T13:17:39.156Z,0.50
2022-09-28T13:20:39.354Z,0.50
2022-09-28T13:23:15.406Z,0.40
2022-09-28T13:26:11.508Z,0.43
2022-09-28T13:28:38.372Z,0.50
2022-09-28T13:31:05.199Z,0.43
2022-09-28T13:33:40.260Z,0.40
2022-09-28T13:36:25.966Z,0.30
2022-09-28T13:38:53.078Z,0.70
2022-09-28T13:41:40.531Z,0.50
2022-09-28T13:44:13.464Z,0.40
2022-09-28T13:46:58.748Z,0.50
2022-09-28T13:49:41.001Z,0.40
2022-09-28T13:52:47.992Z,0.47
2022-09-28T13:55:33.275Z,0.40
2022-09-28T13:58:21.487Z,0.50
2022-09-28T14:00:51.340Z,0.32
2022-09-28T14:03:24.330Z,0.30
2022-09-28T14:06:00.834Z,0.40
2022-09-28T14:08:34.755Z,0.60
2022-09-28T14:11:34.280Z,0.45
2022-09-28T14:14:14.178Z,0.50
2022-09-28T14:16:41.637Z,0.40
2022-09-28T14:19:21.611Z,0.60
2022-09-28T14:22:07.164Z,0.50
2022-09-28T14:24:37.828Z,0.40
2022-09-28T14:27:18.993Z,0.40
2022-09-28T14:29:45.906Z,0.47
2022-09-28T14:32:12.673Z,0.50
2022-09-28T14:34:54.740Z,0.40
2022-09-28T14:37:43.393Z,0.40
2022-09-28T14:40:36.164Z,0.50
2022-09-28T14:43:34.781Z,0.50
2022-09-28T14:46:23.219Z,0.38
2022-09-28T14:48:52.694Z,0.40
2022-09-28T14:51:31.364Z,0.50
2022-09-28T14:54:04.570Z,0.40
2022-09-28T14:56:40.390Z,0.50
2022-09-28T14:59:07.566Z,0.50
2022-09-28T15:01:34.415Z,0.60
2022-09-28T15:04:04.841Z,0.55
2022-09-28T15:06:48.522Z,0.60
2022-09-28T15:09:44.463Z,0.52
2022-09-28T15:12:13.161Z,0.50
2022-09-28T15:14:56.461Z,0.50
2022-09-28T15:17:39.280Z,0.60
2022-09-28T15:20:30.085Z,0.50
2022-09-28T15:22:58.454Z,0.50
2022-09-28T15:25:30.110Z,0.50
2022-09-28T15:28:03.500Z,0.60
2022-09-28T15:30:32.009Z,0.50
2022-09-28T15:33:18.523Z,0.52
2022-09-28T15:35:55.755Z,0.57
2022-09-28T15:38:22.630Z,0.50
2022-09-28T15:40:49.493Z,0.60
2022-09-28T15:43:29.067Z,0.50
2022-09-28T15:46:11.232Z,0.47
2022-09-28T15:48:52.172Z,0.50
2022-09-28T15:51:20.035Z,0.50
2022-09-28T15:53:58.933Z,0.57
2022-09-28T15:56:26.274Z,0.40
2022-09-28T15:59:13.185Z,0.60
2022-09-28T16:01:41.026Z,0.55
2022-09-28T16:04:38.778Z,0.57
2022-09-28T16:07:23.979Z,0.60
2022-09-28T16:10:01.036Z,0.55
2022-09-28T16:12:36.597Z,0.60
2022-09-28T16:15:07.141Z,0.50
2022-09-28T16:17:35.013Z,0.57
2022-09-28T16:20:03.845Z,0.50
2022-09-28T16:22:32.555Z,0.50
2022-09-28T16:25:00.051Z,0.60
2022-09-28T16:27:29.773Z,0.50
2022-09-28T16:30:16.995Z,0.50
2022-09-28T16:32:52.595Z,0.60
2022-09-28T16:35:19.417Z,0.52
2022-09-28T16:37:58.059Z,0.55
2022-09-28T16:40:25.045Z,0.50
2022-09-28T16:42:51.908Z,0.77
2022-09-28T16:45:20.388Z,0.73
2022-09-28T16:47:47.977Z,0.55
2022-09-28T16:50:15.176Z,0.70
2022-09-28T16:53:00.827Z,0.60
2022-09-28T16:55:40.053Z,0.50
2022-09-28T16:58:08.209Z,0.70
2022-09-28T17:00:35.078Z,0.60
2022-09-28T17:03:02.278Z,0.60
2022-09-28T17:05:29.545Z,0.50
2022-09-28T17:08:03.420Z,0.50
2022-09-28T17:10:50.049Z,0.75
2022-09-28T17:13:33.148Z,0.70
2022-09-28T17:16:01.638Z,0.50
2022-09-28T17:18:31.810Z,0.90
2022-09-28T17:21:01.564Z,0.57
2022-09-28T17:23:28.511Z,0.50
2022-09-28T17:25:55.673Z,0.75
2022-09-28T17:28:26.081Z,0.70
2022-09-28T17:30:53.130Z,0.80
2022-09-28T17:33:20.246Z,0.82
2022-09-28T17:35:47.303Z,0.70
2022-09-28T17:38:15.155Z,0.70
2022-09-28T17:40:43.201Z,0.60
2022-09-28T17:43:10.145Z,0.60
2022-09-28T17:45:41.064Z,0.60
2022-09-28T17:48:12.555Z,0.75
2022-09-28T17:50:43.187Z,0.75
2022-09-28T17:53:12.882Z,0.68
2022-09-28T17:55:39.945Z,0.70
2022-09-28T17:58:17.818Z,0.90
2022-09-28T18:00:45.585Z,0.70
2022-09-28T18:03:16.988Z,0.80
2022-09-28T18:05:44.177Z,0.75
2022-09-28T18:08:17.131Z,0.77
2022-09-28T18:10:44.019Z,0.80
2022-09-28T18:13:10.995Z,0.75
2022-09-28T18:15:38.303Z,0.70
2022-09-28T18:18:05.270Z,0.70
2022-09-28T18:20:32.142Z,0.70
2022-09-28T18:22:58.995Z,0.80
2022-09-28T18:25:25.782Z,0.82
2022-09-28T18:27:57.284Z,0.80
2022-09-28T18:30:24.640Z,0.70
2022-09-28T18:32:51.520Z,0.85
2022-09-28T18:35:22.755Z,0.80
2022-09-28T18:37:50.372Z,0.60
2022-09-28T18:40:17.308Z,0.70
2022-09-28T18:42:44.233Z,0.80
2022-09-28T18:45:11.344Z,0.88
2022-09-28T18:47:39.055Z,0.90
2022-09-28T18:50:06.420Z,0.80
2022-09-28T18:52:36.371Z,0.80
2022-09-28T18:55:03.399Z,0.70
2022-09-28T18:57:33.561Z,0.90
2022-09-28T19:00:01.295Z,0.80
2022-09-28T19:02:28.262Z,0.77
2022-09-28T19:04:55.234Z,0.70
2022-09-28T19:07:22.121Z,0.80
2022-09-28T19:09:48.972Z,0.80
2022-09-28T19:12:16.056Z,0.90
2022-09-28T19:14:42.907Z,0.90
2022-09-28T19:17:10.251Z,0.82
2022-09-28T19:19:37.103Z,0.90
2022-09-28T19:22:04.349Z,0.75
2022-09-28T19:24:31.273Z,0.80
2022-09-28T19:26:58.137Z,0.80
2022-09-28T19:29:25.032Z,0.82
2022-09-28T19:31:51.953Z,0.90
2022-09-28T19:34:19.021Z,0.82
2022-09-28T19:36:45.966Z,0.77
2022-09-28T19:39:14.222Z,0.98
2022-09-28T19:41:43.344Z,0.80
2022-09-28T19:44:31.283Z,0.93
2022-09-28T19:47:10.077Z,1.00
2022-09-28T19:49:39.275Z,0.93
2022-09-28T19:52:16.790Z,0.90
2022-09-28T19:54:45.509Z,0.90
2022-09-28T19:57:13.110Z,0.90
2022-09-28T19:59:40.007Z,0.90
2022-09-28T20:02:07.231Z,0.90
2022-09-28T20:04:34.172Z,0.80
2022-09-28T20:07:01.884Z,1.00
2022-09-28T20:09:28.932Z,1.00
2022-09-28T20:11:55.893Z,0.90
2022-09-28T20:14:24.590Z,0.90
2022-09-28T20:16:55.213Z,0.85
2022-09-28T20:19:23.266Z,0.98
2022-09-28T20:21:50.448Z,0.90
2022-09-28T20:24:17.545Z,0.90
2022-09-28T20:26:45.940Z,0.95
2022-09-28T20:29:12.974Z,1.10
2022-09-28T20:31:40.071Z,1.10
2022-09-28T20:34:07.104Z,1.00
2022-09-28T20:36:34.191Z,0.93
2022-09-28T20:39:04.114Z,0.90
2022-09-28T20:41:35.702Z,0.88
2022-09-28T20:44:05.636Z,0.90
2022-09-28T20:46:36.480Z,0.90
2022-09-28T20:49:04.115Z,1.00
2022-09-28T20:51:31.110Z,1.10
2022-09-28T20:53:58.231Z,1.00
2022-09-28T20:56:30.580Z,0.95
2022-09-28T20:58:57.538Z,1.00
2022-09-28T21:01:25.824Z,1.00
2022-09-28T21:04:02.828Z,1.10
2022-09-28T21:06:31.146Z,0.98
2022-09-28T21:08:58.166Z,0.95
2022-09-28T21:11:25.971Z,1.00
2022-09-28T21:13:56.648Z,1.00
2022-09-28T21:16:23.475Z,0.90
2022-09-28T21:18:50.306Z,1.00
2022-09-28T21:21:18.310Z,0.90
2022-09-28T21:23:45.192Z,1.00
2022-09-28T21:26:17.672Z,0.90
2022-09-28T21:28:46.017Z,1.00
2022-09-28T21:31:12.981Z,0.80
2022-09-28T21:33:39.913Z,1.00
2022-09-28T21:36:07.586Z,1.00
2022-09-28T21:38:34.716Z,1.00
2022-09-28T21:41:01.653Z,0.88
2022-09-28T21:43:29.077Z,1.10
2022-09-28T21:45:56.119Z,0.90
2022-09-28T21:48:23.509Z,0.77
2022-09-28T21:51:03.716Z,1.00
2022-09-28T21:53:35.081Z,1.08
2022-09-28T21:56:02.261Z,0.90
2022-09-28T21:58:30.588Z,0.80
2022-09-28T22:01:07.084Z,1.02
2022-09-28T22:03:35.569Z,1.00
2022-09-28T22:06:03.496Z,1.20
2022-09-28T22:08:30.371Z,1.00
2022-09-28T22:11:07.383Z,1.10
2022-09-28T22:13:47.890Z,1.05
2022-09-28T22:16:15.824Z,1.10
2022-09-28T22:18:42.818Z,1.20
2022-09-28T22:21:35.778Z,0.93
2022-09-28T22:24:03.813Z,1.10
2022-09-28T22:26:31.871Z,0.85
2022-09-28T22:29:00.281Z,1.10
2022-09-28T22:31:31.606Z,1.17
2022-09-28T22:33:58.758Z,0.95
2022-09-28T22:36:25.982Z,1.00
2022-09-28T22:38:53.765Z,0.90
2022-09-28T22:41:20.962Z,1.10
2022-09-28T22:43:48.760Z,1.08
2022-09-28T22:46:17.212Z,1.15
2022-09-28T22:48:52.669Z,1.10
2022-09-28T22:51:19.727Z,1.10
2022-09-28T22:53:46.545Z,1.08
2022-09-28T22:56:18.367Z,1.10
2022-09-28T22:58:45.715Z,1.10
2022-09-28T23:01:13.498Z,1.20
2022-09-28T23:03:40.541Z,1.20
2022-09-28T23:06:07.620Z,1.17
2022-09-28T23:08:34.618Z,1.10
2022-09-28T23:11:01.576Z,1.10
2022-09-28T23:13:28.875Z,1.20
2022-09-28T23:16:02.959Z,1.10
2022-09-28T23:18:31.696Z,1.00
2022-09-28T23:21:00.171Z,1.05
2022-09-28T23:23:27.103Z,1.00
2022-09-28T23:25:54.053Z,1.30
2022-09-28T23:28:21.735Z,1.05
2022-09-28T23:30:48.803Z,1.30
2022-09-28T23:33:16.657Z,1.10
2022-09-28T23:35:44.028Z,1.00
2022-09-28T23:38:14.573Z,1.05
2022-09-28T23:40:41.614Z,1.23
2022-09-28T23:43:08.616Z,1.20
2022-09-28T23:45:35.492Z,1.30
2022-09-28T23:48:02.543Z,1.20
2022-09-28T23:50:29.402Z,1.20
2022-09-28T23:52:56.310Z,1.20
2022-09-28T23:55:23.308Z,1.08
2022-09-28T23:57:50.501Z,1.10
